sensor_id;sensor_type;location;lat;lon;timestamp;P1;P2;P0
49708;PMS5003;35601;55.902;13.606;2023-06-22T00:01:26;11;11;
49708;PMS5003;35601;55.902;13.606;2023-06-22T00:03:51;10;10;
49708;PMS5003;35601;55.902;13.606;2023-06-22T00:06:16;9;9;
49708;PMS5003;35601;55.902;13.606;2023-06-22T00:08:42;14;12;
49708;PMS5003;35601;55.902;13.606;2023-06-22T00:11:08;10;10;
49708;PMS5003;35601;55.902;13.606;2023-06-22T00:13:32;10;10;
49708;PMS5003;35601;55.902;13.606;2023-06-22T00:15:57;11;11;
49708;PMS5003;35601;55.902;13.606;2023-06-22T00:18:23;7;7;
49708;PMS5003;35601;55.902;13.606;2023-06-22T00:20:47;8;8;
49708;PMS5003;35601;55.902;13.606;2023-06-22T00:23:13;11;11;
49708;PMS5003;35601;55.902;13.606;2023-06-22T00:25:38;13;9;
49708;PMS5003;35601;55.902;13.606;2023-06-22T00:28:03;8;8;
49708;PMS5003;35601;55.902;13.606;2023-06-22T00:30:29;13;12;
49708;PMS5003;35601;55.902;13.606;2023-06-22T00:32:54;12;11;
49708;PMS5003;35601;55.902;13.606;2023-06-22T00:35:19;9;9;
49708;PMS5003;35601;55.902;13.606;2023-06-22T00:37:44;10;10;
49708;PMS5003;35601;55.902;13.606;2023-06-22T00:40:10;11;9;
49708;PMS5003;35601;55.902;13.606;2023-06-22T00:42:35;11;9;
49708;PMS5003;35601;55.902;13.606;2023-06-22T00:45:00;10;10;
49708;PMS5003;35601;55.902;13.606;2023-06-22T00:47:26;13;10;
49708;PMS5003;35601;55.902;13.606;2023-06-22T00:49:51;10;9;
49708;PMS5003;35601;55.902;13.606;2023-06-22T00:52:16;13;13;
49708;PMS5003;35601;55.902;13.606;2023-06-22T00:54:41;12;12;
49708;PMS5003;35601;55.902;13.606;2023-06-22T00:57:07;13;13;
49708;PMS5003;35601;55.902;13.606;2023-06-22T00:59:32;12;11;
49708;PMS5003;35601;55.902;13.606;2023-06-22T01:01:59;13;11;
49708;PMS5003;35601;55.902;13.606;2023-06-22T01:04:24;14;13;
49708;PMS5003;35601;55.902;13.606;2023-06-22T01:06:51;13;12;
49708;PMS5003;35601;55.902;13.606;2023-06-22T01:09:15;13;13;
49708;PMS5003;35601;55.902;13.606;2023-06-22T01:11:41;15;15;
49708;PMS5003;35601;55.902;13.606;2023-06-22T01:14:06;15;11;
49708;PMS5003;35601;55.902;13.606;2023-06-22T01:16:33;11;11;
49708;PMS5003;35601;55.902;13.606;2023-06-22T01:18:57;14;14;
49708;PMS5003;35601;55.902;13.606;2023-06-22T01:21:22;14;14;
49708;PMS5003;35601;55.902;13.606;2023-06-22T01:23:51;13;13;
49708;PMS5003;35601;55.902;13.606;2023-06-22T01:26:13;14;13;
49708;PMS5003;35601;55.902;13.606;2023-06-22T01:28:42;15;14;
49708;PMS5003;35601;55.902;13.606;2023-06-22T01:31:03;16;13;
49708;PMS5003;35601;55.902;13.606;2023-06-22T01:33:29;13;13;
49708;PMS5003;35601;55.902;13.606;2023-06-22T01:35:55;11;9;
49708;PMS5003;35601;55.902;13.606;2023-06-22T01:38:20;21;20;
49708;PMS5003;35601;55.902;13.606;2023-06-22T01:40:45;12;11;
49708;PMS5003;35601;55.902;13.606;2023-06-22T01:43:10;16;16;
49708;PMS5003;35601;55.902;13.606;2023-06-22T01:45:36;19;18;
49708;PMS5003;35601;55.902;13.606;2023-06-22T01:48:01;15;15;
49708;PMS5003;35601;55.902;13.606;2023-06-22T01:50:27;17;16;
49708;PMS5003;35601;55.902;13.606;2023-06-22T01:52:52;15;15;
49708;PMS5003;35601;55.902;13.606;2023-06-22T01:55:18;18;15;
49708;PMS5003;35601;55.902;13.606;2023-06-22T01:57:44;11;11;
49708;PMS5003;35601;55.902;13.606;2023-06-22T02:00:10;15;14;
49708;PMS5003;35601;55.902;13.606;2023-06-22T02:02:40;13;11;
49708;PMS5003;35601;55.902;13.606;2023-06-22T02:05:02;14;14;
49708;PMS5003;35601;55.902;13.606;2023-06-22T02:07:27;13;13;
49708;PMS5003;35601;55.902;13.606;2023-06-22T02:09:51;14;12;
49708;PMS5003;35601;55.902;13.606;2023-06-22T02:12:17;14;13;
49708;PMS5003;35601;55.902;13.606;2023-06-22T02:14:42;18;17;
49708;PMS5003;35601;55.902;13.606;2023-06-22T02:17:08;19;18;
49708;PMS5003;35601;55.902;13.606;2023-06-22T02:19:32;12;11;
49708;PMS5003;35601;55.902;13.606;2023-06-22T02:21:58;16;16;
49708;PMS5003;35601;55.902;13.606;2023-06-22T02:24:23;17;16;
49708;PMS5003;35601;55.902;13.606;2023-06-22T02:26:49;20;17;
49708;PMS5003;35601;55.902;13.606;2023-06-22T02:29:14;16;16;
49708;PMS5003;35601;55.902;13.606;2023-06-22T02:31:40;17;17;
49708;PMS5003;35601;55.902;13.606;2023-06-22T02:34:05;19;17;
49708;PMS5003;35601;55.902;13.606;2023-06-22T02:36:31;23;18;
49708;PMS5003;35601;55.902;13.606;2023-06-22T02:38:57;17;17;
49708;PMS5003;35601;55.902;13.606;2023-06-22T02:41:22;16;16;
49708;PMS5003;35601;55.902;13.606;2023-06-22T02:43:47;14;14;
49708;PMS5003;35601;55.902;13.606;2023-06-22T02:46:12;16;15;
49708;PMS5003;35601;55.902;13.606;2023-06-22T02:48:38;13;13;
49708;PMS5003;35601;55.902;13.606;2023-06-22T02:51:03;13;12;
49708;PMS5003;35601;55.902;13.606;2023-06-22T02:53:28;17;15;
49708;PMS5003;35601;55.902;13.606;2023-06-22T02:55:55;12;11;
49708;PMS5003;35601;55.902;13.606;2023-06-22T02:58:19;15;14;
49708;PMS5003;35601;55.902;13.606;2023-06-22T03:00:44;17;15;
49708;PMS5003;35601;55.902;13.606;2023-06-22T03:03:10;16;15;
49708;PMS5003;35601;55.902;13.606;2023-06-22T03:05:36;16;16;
49708;PMS5003;35601;55.902;13.606;2023-06-22T03:08:01;16;15;
49708;PMS5003;35601;55.902;13.606;2023-06-22T03:10:26;15;15;
49708;PMS5003;35601;55.902;13.606;2023-06-22T03:12:54;20;18;
49708;PMS5003;35601;55.902;13.606;2023-06-22T03:15:18;14;14;
49708;PMS5003;35601;55.902;13.606;2023-06-22T03:17:43;16;14;
49708;PMS5003;35601;55.902;13.606;2023-06-22T03:20:10;18;17;
49708;PMS5003;35601;55.902;13.606;2023-06-22T03:22:35;15;14;
49708;PMS5003;35601;55.902;13.606;2023-06-22T03:25:00;14;12;
49708;PMS5003;35601;55.902;13.606;2023-06-22T03:27:25;17;15;
49708;PMS5003;35601;55.902;13.606;2023-06-22T03:29:51;15;14;
49708;PMS5003;35601;55.902;13.606;2023-06-22T03:32:16;19;18;
49708;PMS5003;35601;55.902;13.606;2023-06-22T03:34:42;17;14;
49708;PMS5003;35601;55.902;13.606;2023-06-22T03:37:09;14;14;
49708;PMS5003;35601;55.902;13.606;2023-06-22T03:39:32;13;13;
49708;PMS5003;35601;55.902;13.606;2023-06-22T03:41:57;15;14;
49708;PMS5003;35601;55.902;13.606;2023-06-22T03:44:23;15;15;
49708;PMS5003;35601;55.902;13.606;2023-06-22T03:46:49;17;16;
49708;PMS5003;35601;55.902;13.606;2023-06-22T03:49:14;14;14;
49708;PMS5003;35601;55.902;13.606;2023-06-22T03:51:40;14;14;
49708;PMS5003;35601;55.902;13.606;2023-06-22T03:54:05;14;14;
49708;PMS5003;35601;55.902;13.606;2023-06-22T03:56:30;17;16;
49708;PMS5003;35601;55.902;13.606;2023-06-22T03:58:55;15;15;
49708;PMS5003;35601;55.902;13.606;2023-06-22T04:01:20;15;15;
49708;PMS5003;35601;55.902;13.606;2023-06-22T04:03:46;14;13;
49708;PMS5003;35601;55.902;13.606;2023-06-22T04:06:11;16;13;
49708;PMS5003;35601;55.902;13.606;2023-06-22T04:08:36;15;15;
49708;PMS5003;35601;55.902;13.606;2023-06-22T04:11:02;12;11;
49708;PMS5003;35601;55.902;13.606;2023-06-22T04:13:28;13;12;
49708;PMS5003;35601;55.902;13.606;2023-06-22T04:15:52;12;12;
49708;PMS5003;35601;55.902;13.606;2023-06-22T04:18:17;12;12;
49708;PMS5003;35601;55.902;13.606;2023-06-22T04:20:42;13;12;
49708;PMS5003;35601;55.902;13.606;2023-06-22T04:23:08;12;11;
49708;PMS5003;35601;55.902;13.606;2023-06-22T04:25:33;11;11;
49708;PMS5003;35601;55.902;13.606;2023-06-22T04:27:58;11;11;
49708;PMS5003;35601;55.902;13.606;2023-06-22T04:30:24;12;12;
49708;PMS5003;35601;55.902;13.606;2023-06-22T04:32:50;16;16;
49708;PMS5003;35601;55.902;13.606;2023-06-22T04:35:14;13;13;
49708;PMS5003;35601;55.902;13.606;2023-06-22T04:37:40;14;14;
49708;PMS5003;35601;55.902;13.606;2023-06-22T04:40:05;13;12;
49708;PMS5003;35601;55.902;13.606;2023-06-22T04:42:31;9;9;
49708;PMS5003;35601;55.902;13.606;2023-06-22T04:44:56;13;12;
49708;PMS5003;35601;55.902;13.606;2023-06-22T04:47:22;10;9;
49708;PMS5003;35601;55.902;13.606;2023-06-22T04:49:47;11;11;
49708;PMS5003;35601;55.902;13.606;2023-06-22T04:52:13;13;13;
49708;PMS5003;35601;55.902;13.606;2023-06-22T04:54:39;16;15;
49708;PMS5003;35601;55.902;13.606;2023-06-22T04:57:04;13;13;
49708;PMS5003;35601;55.902;13.606;2023-06-22T04:59:29;11;10;
49708;PMS5003;35601;55.902;13.606;2023-06-22T05:01:53;13;12;
49708;PMS5003;35601;55.902;13.606;2023-06-22T05:04:19;15;15;
49708;PMS5003;35601;55.902;13.606;2023-06-22T05:06:46;13;13;
49708;PMS5003;35601;55.902;13.606;2023-06-22T05:09:11;11;11;
49708;PMS5003;35601;55.902;13.606;2023-06-22T05:11:36;10;10;
49708;PMS5003;35601;55.902;13.606;2023-06-22T05:14:02;11;10;
49708;PMS5003;35601;55.902;13.606;2023-06-22T05:16:27;11;10;
49708;PMS5003;35601;55.902;13.606;2023-06-22T05:18:53;15;13;
49708;PMS5003;35601;55.902;13.606;2023-06-22T05:21:21;12;12;
49708;PMS5003;35601;55.902;13.606;2023-06-22T05:23:44;9;9;
49708;PMS5003;35601;55.902;13.606;2023-06-22T05:26:08;12;12;
49708;PMS5003;35601;55.902;13.606;2023-06-22T05:28:33;14;13;
49708;PMS5003;35601;55.902;13.606;2023-06-22T05:30:59;15;13;
49708;PMS5003;35601;55.902;13.606;2023-06-22T05:33:24;14;12;
49708;PMS5003;35601;55.902;13.606;2023-06-22T05:35:49;11;11;
49708;PMS5003;35601;55.902;13.606;2023-06-22T05:38:14;12;12;
49708;PMS5003;35601;55.902;13.606;2023-06-22T05:40:40;12;11;
49708;PMS5003;35601;55.902;13.606;2023-06-22T05:43:05;13;13;
49708;PMS5003;35601;55.902;13.606;2023-06-22T05:45:31;13;11;
49708;PMS5003;35601;55.902;13.606;2023-06-22T05:47:55;17;14;
49708;PMS5003;35601;55.902;13.606;2023-06-22T05:50:21;11;10;
49708;PMS5003;35601;55.902;13.606;2023-06-22T05:52:47;12;12;
49708;PMS5003;35601;55.902;13.606;2023-06-22T05:55:11;11;11;
49708;PMS5003;35601;55.902;13.606;2023-06-22T05:57:38;17;13;
49708;PMS5003;35601;55.902;13.606;2023-06-22T06:00:02;14;14;
49708;PMS5003;35601;55.902;13.606;2023-06-22T06:02:27;11;11;
49708;PMS5003;35601;55.902;13.606;2023-06-22T06:04:53;17;14;
49708;PMS5003;35601;55.902;13.606;2023-06-22T06:07:18;16;16;
49708;PMS5003;35601;55.902;13.606;2023-06-22T06:09:43;12;12;
49708;PMS5003;35601;55.902;13.606;2023-06-22T06:12:09;10;10;
49708;PMS5003;35601;55.902;13.606;2023-06-22T06:14:34;14;14;
49708;PMS5003;35601;55.902;13.606;2023-06-22T06:17:00;12;12;
49708;PMS5003;35601;55.902;13.606;2023-06-22T06:19:26;11;11;
49708;PMS5003;35601;55.902;13.606;2023-06-22T06:21:50;16;13;
49708;PMS5003;35601;55.902;13.606;2023-06-22T06:24:15;15;11;
49708;PMS5003;35601;55.902;13.606;2023-06-22T06:26:41;9;8;
49708;PMS5003;35601;55.902;13.606;2023-06-22T06:29:07;9;9;
49708;PMS5003;35601;55.902;13.606;2023-06-22T06:31:33;18;17;
49708;PMS5003;35601;55.902;13.606;2023-06-22T06:33:57;12;10;
49708;PMS5003;35601;55.902;13.606;2023-06-22T06:36:23;11;9;
49708;PMS5003;35601;55.902;13.606;2023-06-22T06:38:48;10;10;
49708;PMS5003;35601;55.902;13.606;2023-06-22T06:41:13;11;11;
49708;PMS5003;35601;55.902;13.606;2023-06-22T06:43:38;10;10;
49708;PMS5003;35601;55.902;13.606;2023-06-22T06:46:03;11;9;
49708;PMS5003;35601;55.902;13.606;2023-06-22T06:48:30;10;9;
49708;PMS5003;35601;55.902;13.606;2023-06-22T06:50:54;15;12;
49708;PMS5003;35601;55.902;13.606;2023-06-22T06:53:19;10;10;
49708;PMS5003;35601;55.902;13.606;2023-06-22T06:55:44;7;7;
49708;PMS5003;35601;55.902;13.606;2023-06-22T06:58:11;8;8;
49708;PMS5003;35601;55.902;13.606;2023-06-22T07:00:34;9;7;
49708;PMS5003;35601;55.902;13.606;2023-06-22T07:03:00;10;10;
49708;PMS5003;35601;55.902;13.606;2023-06-22T07:05:25;8;8;
49708;PMS5003;35601;55.902;13.606;2023-06-22T07:07:50;12;11;
49708;PMS5003;35601;55.902;13.606;2023-06-22T07:10:15;9;7;
49708;PMS5003;35601;55.902;13.606;2023-06-22T07:15:08;10;8;
49708;PMS5003;35601;55.902;13.606;2023-06-22T07:17:30;6;6;
49708;PMS5003;35601;55.902;13.606;2023-06-22T07:19:56;7;7;
49708;PMS5003;35601;55.902;13.606;2023-06-22T07:22:21;12;9;
49708;PMS5003;35601;55.902;13.606;2023-06-22T07:24:46;9;9;
49708;PMS5003;35601;55.902;13.606;2023-06-22T07:27:11;9;8;
49708;PMS5003;35601;55.902;13.606;2023-06-22T07:29:36;9;8;
49708;PMS5003;35601;55.902;13.606;2023-06-22T07:32:02;7;7;
49708;PMS5003;35601;55.902;13.606;2023-06-22T07:34:27;11;7;
49708;PMS5003;35601;55.902;13.606;2023-06-22T07:36:52;12;10;
49708;PMS5003;35601;55.902;13.606;2023-06-22T07:39:19;10;9;
49708;PMS5003;35601;55.902;13.606;2023-06-22T07:41:44;9;6;
49708;PMS5003;35601;55.902;13.606;2023-06-22T07:44:08;7;7;
49708;PMS5003;35601;55.902;13.606;2023-06-22T07:46:33;7;7;
49708;PMS5003;35601;55.902;13.606;2023-06-22T07:49:00;7;7;
49708;PMS5003;35601;55.902;13.606;2023-06-22T07:51:24;10;10;
49708;PMS5003;35601;55.902;13.606;2023-06-22T07:53:50;6;6;
49708;PMS5003;35601;55.902;13.606;2023-06-22T07:56:14;5;5;
49708;PMS5003;35601;55.902;13.606;2023-06-22T07:58:39;6;6;
49708;PMS5003;35601;55.902;13.606;2023-06-22T08:01:06;6;6;
49708;PMS5003;35601;55.902;13.606;2023-06-22T08:03:31;7;5;
49708;PMS5003;35601;55.902;13.606;2023-06-22T08:05:55;12;9;
49708;PMS5003;35601;55.902;13.606;2023-06-22T08:08:22;9;8;
49708;PMS5003;35601;55.902;13.606;2023-06-22T08:10:47;8;8;
49708;PMS5003;35601;55.902;13.606;2023-06-22T08:13:10;8;7;
49708;PMS5003;35601;55.902;13.606;2023-06-22T08:15:35;7;7;
49708;PMS5003;35601;55.902;13.606;2023-06-22T08:18:00;6;6;
49708;PMS5003;35601;55.902;13.606;2023-06-22T08:20:25;7;7;
49708;PMS5003;35601;55.902;13.606;2023-06-22T08:22:52;6;5;
49708;PMS5003;35601;55.902;13.606;2023-06-22T08:25:15;8;7;
49708;PMS5003;35601;55.902;13.606;2023-06-22T08:27:44;9;7;
49708;PMS5003;35601;55.902;13.606;2023-06-22T08:30:06;6;6;
49708;PMS5003;35601;55.902;13.606;2023-06-22T08:32:31;6;6;
49708;PMS5003;35601;55.902;13.606;2023-06-22T08:34:57;7;7;
49708;PMS5003;35601;55.902;13.606;2023-06-22T08:37:21;10;8;
49708;PMS5003;35601;55.902;13.606;2023-06-22T08:39:47;9;7;
49708;PMS5003;35601;55.902;13.606;2023-06-22T08:42:12;7;7;
49708;PMS5003;35601;55.902;13.606;2023-06-22T08:44:37;6;5;
49708;PMS5003;35601;55.902;13.606;2023-06-22T08:47:02;9;9;
49708;PMS5003;35601;55.902;13.606;2023-06-22T08:49:27;11;8;
49708;PMS5003;35601;55.902;13.606;2023-06-22T08:51:52;7;7;
49708;PMS5003;35601;55.902;13.606;2023-06-22T08:54:18;10;9;
49708;PMS5003;35601;55.902;13.606;2023-06-22T08:56:43;7;7;
49708;PMS5003;35601;55.902;13.606;2023-06-22T08:59:09;7;7;
49708;PMS5003;35601;55.902;13.606;2023-06-22T09:01:38;9;6;
49708;PMS5003;35601;55.902;13.606;2023-06-22T09:03:59;7;7;
49708;PMS5003;35601;55.902;13.606;2023-06-22T09:06:23;4;4;
49708;PMS5003;35601;55.902;13.606;2023-06-22T09:08:48;6;6;
49708;PMS5003;35601;55.902;13.606;2023-06-22T09:11:13;6;5;
49708;PMS5003;35601;55.902;13.606;2023-06-22T09:13:39;5;5;
49708;PMS5003;35601;55.902;13.606;2023-06-22T09:16:05;5;4;
49708;PMS5003;35601;55.902;13.606;2023-06-22T09:18:29;5;5;
49708;PMS5003;35601;55.902;13.606;2023-06-22T09:20:55;4;4;
49708;PMS5003;35601;55.902;13.606;2023-06-22T09:23:21;6;6;
49708;PMS5003;35601;55.902;13.606;2023-06-22T09:25:45;5;5;
49708;PMS5003;35601;55.902;13.606;2023-06-22T09:28:10;7;7;
49708;PMS5003;35601;55.902;13.606;2023-06-22T09:30:35;6;6;
49708;PMS5003;35601;55.902;13.606;2023-06-22T09:33:00;8;7;
49708;PMS5003;35601;55.902;13.606;2023-06-22T09:35:25;7;7;
49708;PMS5003;35601;55.902;13.606;2023-06-22T09:37:50;7;7;
49708;PMS5003;35601;55.902;13.606;2023-06-22T09:40:17;6;6;
49708;PMS5003;35601;55.902;13.606;2023-06-22T09:42:41;4;4;
49708;PMS5003;35601;55.902;13.606;2023-06-22T09:45:06;4;4;
49708;PMS5003;35601;55.902;13.606;2023-06-22T09:47:31;5;5;
49708;PMS5003;35601;55.902;13.606;2023-06-22T09:49:56;5;5;
49708;PMS5003;35601;55.902;13.606;2023-06-22T09:52:21;4;4;
49708;PMS5003;35601;55.902;13.606;2023-06-22T09:54:47;5;5;
49708;PMS5003;35601;55.902;13.606;2023-06-22T09:57:11;7;7;
49708;PMS5003;35601;55.902;13.606;2023-06-22T09:59:37;7;7;
49708;PMS5003;35601;55.902;13.606;2023-06-22T10:02:02;6;5;
49708;PMS5003;35601;55.902;13.606;2023-06-22T10:04:27;5;5;
49708;PMS5003;35601;55.902;13.606;2023-06-22T10:06:52;4;4;
49708;PMS5003;35601;55.902;13.606;2023-06-22T10:09:17;5;5;
49708;PMS5003;35601;55.902;13.606;2023-06-22T10:11:44;5;5;
49708;PMS5003;35601;55.902;13.606;2023-06-22T10:14:08;5;5;
49708;PMS5003;35601;55.902;13.606;2023-06-22T10:16:33;6;5;
49708;PMS5003;35601;55.902;13.606;2023-06-22T10:18:58;6;6;
49708;PMS5003;35601;55.902;13.606;2023-06-22T10:21:23;7;7;
49708;PMS5003;35601;55.902;13.606;2023-06-22T10:23:49;11;5;
49708;PMS5003;35601;55.902;13.606;2023-06-22T10:26:15;5;5;
49708;PMS5003;35601;55.902;13.606;2023-06-22T10:28:49;6;4;
49708;PMS5003;35601;55.902;13.606;2023-06-22T10:31:04;6;6;
49708;PMS5003;35601;55.902;13.606;2023-06-22T10:33:29;6;6;
49708;PMS5003;35601;55.902;13.606;2023-06-22T10:35:54;4;4;
49708;PMS5003;35601;55.902;13.606;2023-06-22T10:38:19;6;4;
49708;PMS5003;35601;55.902;13.606;2023-06-22T10:40:44;7;7;
49708;PMS5003;35601;55.902;13.606;2023-06-22T10:43:09;6;4;
49708;PMS5003;35601;55.902;13.606;2023-06-22T10:45:34;5;5;
49708;PMS5003;35601;55.902;13.606;2023-06-22T10:47:59;5;5;
49708;PMS5003;35601;55.902;13.606;2023-06-22T10:50:24;5;5;
49708;PMS5003;35601;55.902;13.606;2023-06-22T10:52:49;5;5;
49708;PMS5003;35601;55.902;13.606;2023-06-22T10:55:15;6;6;
49708;PMS5003;35601;55.902;13.606;2023-06-22T10:57:40;5;5;
49708;PMS5003;35601;55.902;13.606;2023-06-22T11:00:05;7;7;
49708;PMS5003;35601;55.902;13.606;2023-06-22T11:02:30;5;5;
49708;PMS5003;35601;55.902;13.606;2023-06-22T11:04:55;5;5;
49708;PMS5003;35601;55.902;13.606;2023-06-22T11:07:21;5;5;
49708;PMS5003;35601;55.902;13.606;2023-06-22T11:09:56;5;5;
49708;PMS5003;35601;55.902;13.606;2023-06-22T11:12:10;6;6;
49708;PMS5003;35601;55.902;13.606;2023-06-22T11:14:35;6;6;
49708;PMS5003;35601;55.902;13.606;2023-06-22T11:17:00;8;6;
49708;PMS5003;35601;55.902;13.606;2023-06-22T11:19:25;4;4;
49708;PMS5003;35601;55.902;13.606;2023-06-22T11:21:50;7;6;
49708;PMS5003;35601;55.902;13.606;2023-06-22T11:24:15;7;5;
49708;PMS5003;35601;55.902;13.606;2023-06-22T11:26:41;3;3;
49708;PMS5003;35601;55.902;13.606;2023-06-22T11:29:06;7;5;
49708;PMS5003;35601;55.902;13.606;2023-06-22T11:31:33;5;5;
49708;PMS5003;35601;55.902;13.606;2023-06-22T11:33:56;6;6;
49708;PMS5003;35601;55.902;13.606;2023-06-22T11:36:21;7;7;
49708;PMS5003;35601;55.902;13.606;2023-06-22T11:38:46;8;6;
49708;PMS5003;35601;55.902;13.606;2023-06-22T11:41:11;5;5;
49708;PMS5003;35601;55.902;13.606;2023-06-22T11:43:37;7;7;
49708;PMS5003;35601;55.902;13.606;2023-06-22T11:46:02;6;6;
49708;PMS5003;35601;55.902;13.606;2023-06-22T11:48:27;4;4;
49708;PMS5003;35601;55.902;13.606;2023-06-22T11:50:52;4;4;
49708;PMS5003;35601;55.902;13.606;2023-06-22T11:53:18;9;6;
49708;PMS5003;35601;55.902;13.606;2023-06-22T11:55:43;8;5;
49708;PMS5003;35601;55.902;13.606;2023-06-22T11:58:08;3;3;
49708;PMS5003;35601;55.902;13.606;2023-06-22T12:00:34;6;6;
49708;PMS5003;35601;55.902;13.606;2023-06-22T12:02:58;5;5;
49708;PMS5003;35601;55.902;13.606;2023-06-22T12:05:23;4;4;
49708;PMS5003;35601;55.902;13.606;2023-06-22T12:07:48;5;5;
49708;PMS5003;35601;55.902;13.606;2023-06-22T12:10:13;7;5;
49708;PMS5003;35601;55.902;13.606;2023-06-22T12:12:38;4;4;
49708;PMS5003;35601;55.902;13.606;2023-06-22T12:15:04;4;4;
49708;PMS5003;35601;55.902;13.606;2023-06-22T12:17:34;10;9;
49708;PMS5003;35601;55.902;13.606;2023-06-22T12:19:55;4;4;
49708;PMS5003;35601;55.902;13.606;2023-06-22T12:22:19;6;5;
49708;PMS5003;35601;55.902;13.606;2023-06-22T12:24:44;6;4;
49708;PMS5003;35601;55.902;13.606;2023-06-22T12:27:09;4;4;
49708;PMS5003;35601;55.902;13.606;2023-06-22T12:29:34;7;5;
49708;PMS5003;35601;55.902;13.606;2023-06-22T12:31:59;4;4;
49708;PMS5003;35601;55.902;13.606;2023-06-22T12:34:24;4;4;
49708;PMS5003;35601;55.902;13.606;2023-06-22T12:36:49;4;4;
49708;PMS5003;35601;55.902;13.606;2023-06-22T12:39:14;5;4;
49708;PMS5003;35601;55.902;13.606;2023-06-22T12:41:40;4;4;
49708;PMS5003;35601;55.902;13.606;2023-06-22T12:44:05;5;5;
49708;PMS5003;35601;55.902;13.606;2023-06-22T12:46:30;4;4;
49708;PMS5003;35601;55.902;13.606;2023-06-22T12:48:55;5;5;
49708;PMS5003;35601;55.902;13.606;2023-06-22T12:51:20;4;4;
49708;PMS5003;35601;55.902;13.606;2023-06-22T12:53:45;3;3;
49708;PMS5003;35601;55.902;13.606;2023-06-22T12:56:10;3;3;
49708;PMS5003;35601;55.902;13.606;2023-06-22T12:58:35;3;3;
49708;PMS5003;35601;55.902;13.606;2023-06-22T13:01:00;5;5;
49708;PMS5003;35601;55.902;13.606;2023-06-22T13:03:25;4;3;
49708;PMS5003;35601;55.902;13.606;2023-06-22T13:05:50;4;4;
49708;PMS5003;35601;55.902;13.606;2023-06-22T13:08:17;4;4;
49708;PMS5003;35601;55.902;13.606;2023-06-22T13:10:42;4;4;
49708;PMS5003;35601;55.902;13.606;2023-06-22T13:13:05;4;2;
49708;PMS5003;35601;55.902;13.606;2023-06-22T13:15:30;5;5;
49708;PMS5003;35601;55.902;13.606;2023-06-22T13:17:56;7;4;
49708;PMS5003;35601;55.902;13.606;2023-06-22T13:20:20;5;4;
49708;PMS5003;35601;55.902;13.606;2023-06-22T13:22:47;4;3;
49708;PMS5003;35601;55.902;13.606;2023-06-22T13:25:11;4;4;
49708;PMS5003;35601;55.902;13.606;2023-06-22T13:27:36;4;4;
49708;PMS5003;35601;55.902;13.606;2023-06-22T13:30:01;6;6;
49708;PMS5003;35601;55.902;13.606;2023-06-22T13:32:26;3;2;
49708;PMS5003;35601;55.902;13.606;2023-06-22T13:34:52;3;2;
49708;PMS5003;35601;55.902;13.606;2023-06-22T13:37:17;5;5;
49708;PMS5003;35601;55.902;13.606;2023-06-22T13:39:42;2;2;
49708;PMS5003;35601;55.902;13.606;2023-06-22T13:42:07;5;5;
49708;PMS5003;35601;55.902;13.606;2023-06-22T13:44:32;5;5;
49708;PMS5003;35601;55.902;13.606;2023-06-22T13:46:57;2;2;
49708;PMS5003;35601;55.902;13.606;2023-06-22T13:49:22;5;5;
49708;PMS5003;35601;55.902;13.606;2023-06-22T13:51:47;5;5;
49708;PMS5003;35601;55.902;13.606;2023-06-22T13:54:12;6;4;
49708;PMS5003;35601;55.902;13.606;2023-06-22T13:56:37;4;4;
49708;PMS5003;35601;55.902;13.606;2023-06-22T13:59:03;5;5;
49708;PMS5003;35601;55.902;13.606;2023-06-22T14:01:29;5;4;
49708;PMS5003;35601;55.902;13.606;2023-06-22T14:03:53;3;3;
49708;PMS5003;35601;55.902;13.606;2023-06-22T14:06:18;3;3;
49708;PMS5003;35601;55.902;13.606;2023-06-22T14:08:43;5;5;
49708;PMS5003;35601;55.902;13.606;2023-06-22T14:11:08;6;6;
49708;PMS5003;35601;55.902;13.606;2023-06-22T14:13:34;6;6;
49708;PMS5003;35601;55.902;13.606;2023-06-22T14:15:58;4;4;
49708;PMS5003;35601;55.902;13.606;2023-06-22T14:18:23;5;3;
49708;PMS5003;35601;55.902;13.606;2023-06-22T14:20:48;5;5;
49708;PMS5003;35601;55.902;13.606;2023-06-22T14:23:14;5;5;
49708;PMS5003;35601;55.902;13.606;2023-06-22T14:25:39;4;4;
49708;PMS5003;35601;55.902;13.606;2023-06-22T14:28:03;4;4;
49708;PMS5003;35601;55.902;13.606;2023-06-22T14:30:28;5;4;
49708;PMS5003;35601;55.902;13.606;2023-06-22T14:32:54;3;3;
49708;PMS5003;35601;55.902;13.606;2023-06-22T14:35:19;7;5;
49708;PMS5003;35601;55.902;13.606;2023-06-22T14:37:44;4;4;
49708;PMS5003;35601;55.902;13.606;2023-06-22T14:40:09;4;4;
49708;PMS5003;35601;55.902;13.606;2023-06-22T14:42:36;4;4;
49708;PMS5003;35601;55.902;13.606;2023-06-22T14:44:59;5;5;
49708;PMS5003;35601;55.902;13.606;2023-06-22T14:47:24;5;5;
49708;PMS5003;35601;55.902;13.606;2023-06-22T14:49:49;6;4;
49708;PMS5003;35601;55.902;13.606;2023-06-22T14:52:16;6;6;
49708;PMS5003;35601;55.902;13.606;2023-06-22T14:54:39;6;6;
49708;PMS5003;35601;55.902;13.606;2023-06-22T14:57:04;4;4;
49708;PMS5003;35601;55.902;13.606;2023-06-22T14:59:29;5;5;
49708;PMS5003;35601;55.902;13.606;2023-06-22T15:01:54;5;3;
49708;PMS5003;35601;55.902;13.606;2023-06-22T15:04:20;4;4;
49708;PMS5003;35601;55.902;13.606;2023-06-22T15:06:45;4;4;
49708;PMS5003;35601;55.902;13.606;2023-06-22T15:09:10;6;4;
49708;PMS5003;35601;55.902;13.606;2023-06-22T15:11:35;7;7;
49708;PMS5003;35601;55.902;13.606;2023-06-22T15:14:00;5;5;
49708;PMS5003;35601;55.902;13.606;2023-06-22T15:16:26;6;6;
49708;PMS5003;35601;55.902;13.606;2023-06-22T15:18:51;4;4;
49708;PMS5003;35601;55.902;13.606;2023-06-22T15:21:17;6;4;
49708;PMS5003;35601;55.902;13.606;2023-06-22T15:23:41;5;5;
49708;PMS5003;35601;55.902;13.606;2023-06-22T15:26:06;5;5;
49708;PMS5003;35601;55.902;13.606;2023-06-22T15:28:31;5;5;
49708;PMS5003;35601;55.902;13.606;2023-06-22T15:30:56;4;4;
49708;PMS5003;35601;55.902;13.606;2023-06-22T15:33:21;6;6;
49708;PMS5003;35601;55.902;13.606;2023-06-22T15:35:46;7;7;
49708;PMS5003;35601;55.902;13.606;2023-06-22T15:38:11;8;6;
49708;PMS5003;35601;55.902;13.606;2023-06-22T15:40:36;5;3;
49708;PMS5003;35601;55.902;13.606;2023-06-22T15:43:02;5;5;
49708;PMS5003;35601;55.902;13.606;2023-06-22T15:45:27;7;5;
49708;PMS5003;35601;55.902;13.606;2023-06-22T15:47:52;6;6;
49708;PMS5003;35601;55.902;13.606;2023-06-22T15:50:19;5;5;
49708;PMS5003;35601;55.902;13.606;2023-06-22T15:52:42;5;5;
49708;PMS5003;35601;55.902;13.606;2023-06-22T15:55:07;6;5;
49708;PMS5003;35601;55.902;13.606;2023-06-22T15:57:32;5;5;
49708;PMS5003;35601;55.902;13.606;2023-06-22T15:59:57;5;5;
49708;PMS5003;35601;55.902;13.606;2023-06-22T16:02:24;4;4;
49708;PMS5003;35601;55.902;13.606;2023-06-22T16:04:49;6;6;
49708;PMS5003;35601;55.902;13.606;2023-06-22T16:07:12;5;5;
49708;PMS5003;35601;55.902;13.606;2023-06-22T16:09:37;3;3;